createdAt,value
2022-12-25T00:01:14.139Z,11.50
2022-12-25T00:03:41.183Z,11.37
2022-12-25T00:06:08.262Z,12.23
2022-12-25T00:08:35.975Z,12.60
2022-12-25T00:11:06.138Z,12.30
2022-12-25T00:13:33.117Z,12.60
2022-12-25T00:15:59.943Z,12.07
2022-12-25T00:18:27.368Z,12.47
2022-12-25T00:21:02.296Z,12.63
2022-12-25T00:23:29.627Z,12.37
2022-12-25T00:25:56.806Z,12.30
2022-12-25T00:28:24.768Z,12.27
2022-12-25T00:30:51.962Z,12.50
2022-12-25T00:33:18.889Z,12.50
2022-12-25T00:35:45.729Z,11.97
2022-12-25T00:38:12.663Z,12.17
2022-12-25T00:40:44.155Z,12.03
2022-12-25T00:43:11.232Z,12.17
2022-12-25T00:45:38.050Z,11.60
2022-12-25T00:48:05.331Z,11.80
2022-12-25T00:50:32.741Z,11.17
2022-12-25T00:52:59.573Z,11.97
2022-12-25T00:55:26.409Z,11.87
2022-12-25T00:57:53.332Z,11.00
2022-12-25T01:00:20.231Z,11.77
2022-12-25T01:02:47.282Z,11.87
2022-12-25T01:05:14.189Z,11.37
2022-12-25T01:07:41.016Z,11.20
2022-12-25T01:10:25.045Z,11.47
2022-12-25T01:12:52.618Z,10.83
2022-12-25T01:15:19.510Z,10.00
2022-12-25T01:17:46.499Z,11.00
2022-12-25T01:20:15.431Z,11.00
2022-12-25T01:22:43.243Z,11.10
2022-12-25T01:25:11.354Z,10.90
2022-12-25T01:27:39.516Z,10.77
2022-12-25T01:30:07.033Z,11.00
2022-12-25T01:32:33.887Z,10.70
2022-12-25T01:35:00.746Z,10.77
2022-12-25T01:37:27.675Z,10.90
2022-12-25T01:39:54.449Z,10.83
2022-12-25T01:42:23.755Z,11.17
2022-12-25T01:44:50.544Z,10.90
2022-12-25T01:47:18.412Z,10.97
2022-12-25T01:49:50.244Z,10.73
2022-12-25T01:52:24.412Z,10.63
2022-12-25T01:55:00.754Z,10.87
2022-12-25T01:57:32.721Z,10.80
2022-12-25T02:00:00.688Z,10.80
2022-12-25T02:02:28.972Z,10.77
2022-12-25T02:05:01.140Z,11.13
2022-12-25T02:07:29.672Z,11.27
2022-12-25T02:09:56.455Z,11.50
2022-12-25T02:12:29.208Z,11.53
2022-12-25T02:15:04.909Z,11.90
2022-12-25T02:18:05.862Z,11.40
2022-12-25T02:20:41.769Z,11.73
2022-12-25T02:23:34.718Z,11.80
2022-12-25T02:26:08.195Z,11.47
2022-12-25T02:29:12.781Z,11.60
2022-12-25T02:31:54.218Z,11.43
2022-12-25T02:34:26.082Z,11.73
2022-12-25T02:37:15.579Z,11.90
2022-12-25T02:40:05.348Z,11.27
2022-12-25T02:43:34.756Z,11.63
2022-12-25T02:46:26.802Z,11.50
2022-12-25T02:49:38.230Z,11.93
2022-12-25T02:52:36.029Z,14.03
2022-12-25T02:55:29.945Z,11.30
2022-12-25T02:58:19.213Z,11.33
2022-12-25T03:01:10.551Z,11.73
2022-12-25T03:03:59.279Z,11.70
2022-12-25T03:06:44.264Z,11.80
2022-12-25T03:09:40.413Z,11.70
2022-12-25T03:12:18.679Z,11.63
2022-12-25T03:15:04.324Z,11.97
2022-12-25T03:17:33.399Z,11.40
2022-12-25T03:20:19.045Z,11.63
2022-12-25T03:23:06.461Z,11.17
2022-12-25T03:25:52.412Z,11.53
2022-12-25T03:28:19.288Z,11.70
2022-12-25T03:31:13.283Z,10.90
2022-12-25T03:34:09.230Z,11.63
2022-12-25T03:36:47.753Z,11.33
2022-12-25T03:40:00.142Z,11.77
2022-12-25T03:42:43.193Z,11.60
2022-12-25T03:45:40.851Z,12.10
2022-12-25T03:48:13.350Z,11.27
2022-12-25T03:51:15.903Z,11.53
2022-12-25T03:54:05.820Z,11.30
2022-12-25T03:56:52.191Z,11.30
2022-12-25T03:59:39.075Z,11.57
2022-12-25T04:02:24.467Z,11.50
2022-12-25T04:05:10.114Z,11.53
2022-12-25T04:07:55.483Z,11.93
2022-12-25T04:10:41.177Z,11.57
2022-12-25T04:13:26.569Z,11.40
2022-12-25T04:16:12.939Z,12.00
2022-12-25T04:18:58.905Z,12.03
2022-12-25T04:21:45.132Z,12.17
2022-12-25T04:24:30.981Z,12.17
2022-12-25T04:27:16.243Z,12.60
2022-12-25T04:30:01.565Z,11.40
2022-12-25T04:32:46.859Z,11.83
2022-12-25T04:35:32.503Z,11.90
2022-12-25T04:37:59.308Z,11.93
2022-12-25T04:40:26.133Z,11.97
2022-12-25T04:42:53.336Z,12.10
2022-12-25T04:45:20.141Z,11.77
2022-12-25T04:47:46.947Z,15.40
2022-12-25T04:50:13.807Z,12.20
2022-12-25T04:52:41.297Z,11.73
2022-12-25T04:55:09.482Z,11.40
2022-12-25T04:57:36.418Z,11.73
2022-12-25T05:00:04.420Z,12.20
2022-12-25T05:02:31.948Z,12.20
2022-12-25T05:04:58.880Z,12.43
2022-12-25T05:07:25.722Z,11.93
2022-12-25T05:09:52.728Z,12.13
2022-12-25T05:12:19.679Z,12.00
2022-12-25T05:14:46.922Z,12.20
2022-12-25T05:17:13.959Z,11.97
2022-12-25T05:19:40.716Z,12.10
2022-12-25T05:22:07.629Z,11.80
2022-12-25T05:24:34.369Z,11.93
2022-12-25T05:27:01.154Z,11.87
2022-12-25T05:29:28.033Z,11.70
2022-12-25T05:31:54.890Z,11.80
2022-12-25T05:34:21.706Z,11.63
2022-12-25T05:36:48.497Z,11.60
2022-12-25T05:39:15.317Z,11.90
2022-12-25T05:41:42.302Z,12.00
2022-12-25T05:44:09.124Z,11.80
2022-12-25T05:46:35.966Z,11.77
2022-12-25T05:49:02.832Z,11.80
2022-12-25T05:51:30.900Z,11.73
2022-12-25T05:53:57.707Z,13.73
2022-12-25T05:56:24.550Z,11.43
2022-12-25T05:58:51.442Z,12.00
2022-12-25T06:01:24.463Z,12.17
2022-12-25T06:03:51.427Z,12.17
2022-12-25T06:06:18.478Z,12.30
2022-12-25T06:08:45.828Z,12.17
2022-12-25T06:11:14.247Z,12.23
2022-12-25T06:13:41.256Z,12.07
2022-12-25T06:16:10.697Z,12.07
2022-12-25T06:18:39.654Z,11.57
2022-12-25T06:21:11.462Z,12.10
2022-12-25T06:23:38.882Z,11.83
2022-12-25T06:26:09.148Z,12.00
2022-12-25T06:28:36.501Z,12.13
2022-12-25T06:31:15.298Z,12.00
2022-12-25T06:33:42.778Z,11.63
2022-12-25T06:36:13.121Z,12.43
2022-12-25T06:38:40.230Z,12.27
2022-12-25T06:41:10.562Z,12.30
2022-12-25T06:43:38.468Z,12.23
2022-12-25T06:46:06.719Z,12.20
2022-12-25T06:48:34.663Z,11.80
2022-12-25T06:51:02.960Z,11.90
2022-12-25T06:53:37.095Z,12.50
2022-12-25T06:56:15.798Z,12.20
2022-12-25T06:58:54.271Z,12.30
2022-12-25T07:01:22.511Z,12.47
2022-12-25T07:03:51.962Z,12.40
2022-12-25T07:06:18.966Z,12.23
2022-12-25T07:08:45.970Z,13.53
2022-12-25T07:11:13.094Z,12.70
2022-12-25T07:13:39.923Z,11.93
2022-12-25T07:16:07.850Z,12.03
2022-12-25T07:18:35.377Z,11.70
2022-12-25T07:21:12.891Z,11.77
2022-12-25T07:23:40.231Z,11.73
2022-12-25T07:26:07.823Z,11.57
2022-12-25T07:28:34.846Z,11.57
2022-12-25T07:31:07.324Z,12.00
2022-12-25T07:33:34.395Z,11.97
2022-12-25T07:36:01.284Z,12.27
2022-12-25T07:38:28.364Z,11.63
2022-12-25T07:40:55.153Z,12.13
2022-12-25T07:43:22.218Z,12.07
2022-12-25T07:45:49.133Z,12.00
2022-12-25T07:48:17.051Z,11.43
2022-12-25T07:50:44.030Z,11.73
2022-12-25T07:53:10.910Z,11.60
2022-12-25T07:55:37.689Z,12.30
2022-12-25T07:58:04.565Z,11.67
2022-12-25T08:00:34.263Z,11.80
2022-12-25T08:03:01.237Z,11.60
2022-12-25T08:05:29.228Z,12.00
2022-12-25T08:07:57.883Z,12.00
2022-12-25T08:10:25.471Z,12.17
2022-12-25T08:12:55.329Z,12.07
2022-12-25T08:15:22.170Z,11.80
2022-12-25T08:17:49.069Z,12.23
2022-12-25T08:20:16.017Z,11.80
2022-12-25T08:22:42.837Z,11.83
2022-12-25T08:25:09.971Z,12.27
2022-12-25T08:27:36.742Z,12.30
2022-12-25T08:30:03.999Z,12.50
2022-12-25T08:32:33.679Z,12.27
2022-12-25T08:35:00.472Z,12.23
2022-12-25T08:37:30.180Z,12.20
2022-12-25T08:39:57.026Z,12.17
2022-12-25T08:42:24.109Z,12.17
2022-12-25T08:44:50.903Z,12.00
2022-12-25T08:47:17.747Z,12.70
2022-12-25T08:49:44.634Z,12.13
2022-12-25T08:52:11.627Z,12.23
2022-12-25T08:54:38.462Z,12.50
2022-12-25T08:57:05.601Z,11.90
2022-12-25T08:59:32.463Z,11.67
2022-12-25T09:01:59.339Z,11.70
2022-12-25T09:04:26.265Z,11.47
2022-12-25T09:06:53.041Z,12.07
2022-12-25T09:09:19.878Z,11.27
2022-12-25T09:11:46.650Z,11.40
2022-12-25T09:14:14.310Z,11.17
2022-12-25T09:16:41.180Z,11.40
2022-12-25T09:19:08.060Z,11.10
2022-12-25T09:21:36.768Z,11.33
2022-12-25T09:24:07.001Z,11.50
2022-12-25T09:26:33.871Z,11.93
2022-12-25T09:29:00.820Z,12.03
2022-12-25T09:31:27.616Z,11.80
2022-12-25T09:33:57.949Z,11.43
2022-12-25T09:36:25.808Z,11.33
2022-12-25T09:38:52.819Z,11.83
2022-12-25T09:41:46.484Z,11.87
2022-12-25T09:44:22.681Z,11.50
2022-12-25T09:46:59.382Z,11.90
2022-12-25T09:49:50.988Z,11.47
2022-12-25T09:52:26.155Z,11.90
2022-12-25T09:55:20.604Z,11.97
2022-12-25T09:57:52.534Z,11.50
2022-12-25T10:00:24.386Z,11.57
2022-12-25T10:03:15.101Z,11.63
2022-12-25T10:06:00.741Z,11.57
2022-12-25T10:08:47.724Z,11.40
2022-12-25T10:11:25.339Z,11.30
2022-12-25T10:14:10.693Z,12.10
2022-12-25T10:16:43.303Z,11.80
2022-12-25T10:19:42.283Z,11.97
2022-12-25T10:22:20.815Z,11.50
2022-12-25T10:24:51.369Z,11.90
2022-12-25T10:27:37.156Z,11.87
2022-12-25T10:30:14.621Z,11.80
2022-12-25T10:32:41.882Z,11.17
2022-12-25T10:35:17.292Z,10.97
2022-12-25T10:37:46.534Z,11.00
2022-12-25T10:40:28.991Z,11.13
2022-12-25T10:43:04.407Z,11.50
2022-12-25T10:45:31.270Z,11.67
2022-12-25T10:48:08.087Z,11.20
2022-12-25T10:50:43.285Z,10.77
2022-12-25T10:53:27.945Z,11.20
2022-12-25T10:56:02.829Z,11.30
2022-12-25T10:58:30.169Z,11.30
2022-12-25T11:01:07.564Z,11.40
2022-12-25T11:03:38.815Z,11.67
2022-12-25T11:06:07.489Z,11.53
2022-12-25T11:08:35.073Z,11.50
2022-12-25T11:11:08.114Z,11.33
2022-12-25T11:13:39.302Z,11.10
2022-12-25T11:16:14.304Z,11.23
2022-12-25T11:18:49.989Z,11.10
2022-12-25T11:21:26.437Z,11.60
2022-12-25T11:23:59.493Z,11.30
2022-12-25T11:26:28.036Z,10.87
2022-12-25T11:28:58.214Z,11.30
2022-12-25T11:31:40.548Z,11.47
2022-12-25T11:34:18.297Z,10.80
2022-12-25T11:36:50.710Z,10.70
2022-12-25T11:39:22.210Z,10.63
2022-12-25T11:41:53.918Z,10.40
2022-12-25T11:44:35.570Z,10.70
2022-12-25T11:47:13.533Z,10.90
2022-12-25T11:49:49.836Z,10.70
2022-12-25T11:52:20.028Z,10.67
2022-12-25T11:55:02.552Z,11.10
2022-12-25T11:57:33.002Z,10.47
2022-12-25T12:00:06.837Z,10.80
2022-12-25T12:02:59.095Z,10.80
2022-12-25T12:05:35.406Z,11.03
2022-12-25T12:08:05.577Z,10.73
2022-12-25T12:10:58.409Z,10.63
2022-12-25T12:13:44.036Z,10.83
2022-12-25T12:16:11.207Z,11.17
2022-12-25T12:18:38.230Z,11.37
2022-12-25T12:21:23.247Z,10.83
2022-12-25T12:24:14.934Z,11.60
2022-12-25T12:26:44.499Z,11.20
2022-12-25T12:29:30.887Z,11.40
2022-12-25T12:32:01.934Z,11.20
2022-12-25T12:34:37.580Z,11.00
2022-12-25T12:37:12.207Z,11.13
2022-12-25T12:39:40.587Z,11.20
2022-12-25T12:42:27.581Z,11.60
2022-12-25T12:44:57.118Z,11.20
2022-12-25T12:47:51.442Z,11.83
2022-12-25T12:50:35.611Z,11.20
2022-12-25T12:53:22.633Z,11.57
2022-12-25T12:55:50.752Z,11.67
2022-12-25T12:58:33.683Z,11.63
2022-12-25T13:01:32.683Z,11.37
2022-12-25T13:04:13.599Z,11.30
2022-12-25T13:06:55.912Z,11.30
2022-12-25T13:09:46.950Z,10.90
2022-12-25T13:12:15.278Z,11.33
2022-12-25T13:14:47.181Z,11.90
2022-12-25T13:17:18.969Z,11.33
2022-12-25T13:19:46.524Z,11.17
2022-12-25T13:22:30.682Z,11.20
2022-12-25T13:25:00.693Z,11.80
2022-12-25T13:27:30.490Z,11.27
2022-12-25T13:29:58.612Z,11.23
2022-12-25T13:32:28.895Z,11.37
2022-12-25T13:34:56.123Z,11.60
2022-12-25T13:37:29.050Z,11.50
2022-12-25T13:40:01.224Z,11.03
2022-12-25T13:42:31.411Z,11.43
2022-12-25T13:45:18.409Z,11.27
2022-12-25T13:47:49.877Z,11.20
2022-12-25T13:50:27.067Z,11.37
2022-12-25T13:52:55.970Z,11.23
2022-12-25T13:55:25.691Z,11.33
2022-12-25T13:58:01.143Z,10.90
2022-12-25T14:00:31.152Z,10.97
2022-12-25T14:02:58.886Z,11.07
2022-12-25T14:05:42.312Z,10.70
2022-12-25T14:08:21.960Z,11.00
2022-12-25T14:10:51.254Z,10.80
2022-12-25T14:13:22.381Z,11.23
2022-12-25T14:15:51.602Z,10.80
2022-12-25T14:18:20.625Z,10.80
2022-12-25T14:21:04.679Z,10.93
2022-12-25T14:23:42.037Z,10.80
2022-12-25T14:26:16.526Z,12.93
2022-12-25T14:28:48.453Z,11.20
2022-12-25T14:31:15.948Z,11.27
2022-12-25T14:33:43.340Z,11.37
2022-12-25T14:36:13.280Z,11.30
2022-12-25T14:38:42.558Z,11.60
2022-12-25T14:41:26.023Z,11.10
2022-12-25T14:43:56.135Z,11.27
2022-12-25T14:46:25.127Z,11.03
2022-12-25T14:49:04.217Z,11.23
2022-12-25T14:51:32.839Z,10.50
2022-12-25T14:54:04.119Z,10.77
2022-12-25T14:56:39.270Z,10.80
2022-12-25T14:59:10.139Z,10.73
2022-12-25T15:01:40.420Z,10.90
2022-12-25T15:04:10.125Z,11.20
2022-12-25T15:06:42.546Z,10.87
2022-12-25T15:09:16.711Z,11.70
2022-12-25T15:11:43.515Z,10.77
2022-12-25T15:14:10.321Z,11.10
2022-12-25T15:16:52.031Z,11.20
2022-12-25T15:19:33.337Z,11.07
2022-12-25T15:22:04.274Z,10.93
2022-12-25T15:24:31.194Z,11.00
2022-12-25T15:27:00.321Z,11.00
2022-12-25T15:30:07.272Z,10.90
2022-12-25T15:32:20.291Z,11.37
2022-12-25T15:34:49.776Z,10.60
2022-12-25T15:37:18.083Z,11.10
2022-12-25T15:39:45.804Z,11.37
2022-12-25T15:42:15.145Z,10.87
2022-12-25T15:44:43.066Z,10.30
2022-12-25T15:47:14.465Z,11.00
2022-12-25T15:49:41.741Z,10.97
2022-12-25T15:52:12.443Z,11.00
2022-12-25T15:54:39.334Z,10.90
2022-12-25T15:57:13.411Z,10.93
2022-12-25T15:59:40.297Z,10.50
2022-12-25T16:02:15.794Z,11.60
2022-12-25T16:04:43.154Z,11.23
2022-12-25T16:07:18.091Z,11.37
2022-12-25T16:09:45.225Z,11.40
2022-12-25T16:12:12.097Z,11.30
2022-12-25T16:14:39.016Z,11.03
2022-12-25T16:17:05.886Z,11.67
2022-12-25T16:19:32.937Z,11.27
2022-12-25T16:21:59.787Z,11.20
2022-12-25T16:24:26.626Z,11.37
2022-12-25T16:26:53.480Z,11.40
2022-12-25T16:29:20.375Z,11.27
2022-12-25T16:31:47.259Z,10.53
2022-12-25T16:34:14.126Z,10.90
2022-12-25T16:36:40.924Z,10.60
2022-12-25T16:39:07.796Z,10.97
2022-12-25T16:41:34.614Z,11.23
2022-12-25T16:44:12.013Z,11.27
2022-12-25T16:46:40.119Z,11.03
2022-12-25T16:49:07.073Z,11.30
2022-12-25T16:51:33.878Z,11.23
2022-12-25T16:54:00.663Z,11.10
2022-12-25T16:56:28.631Z,11.10
2022-12-25T16:58:57.798Z,10.80
2022-12-25T17:01:25.184Z,10.80
2022-12-25T17:03:52.401Z,10.83
2022-12-25T17:06:23.162Z,10.90
2022-12-25T17:08:51.995Z,11.00
2022-12-25T17:11:24.284Z,10.77
2022-12-25T17:13:51.324Z,10.83
2022-12-25T17:16:22.961Z,11.27
2022-12-25T17:18:57.020Z,11.37
2022-12-25T17:21:24.682Z,11.63
2022-12-25T17:23:55.324Z,11.00
2022-12-25T17:26:25.153Z,11.50
2022-12-25T17:28:52.378Z,10.90
2022-12-25T17:31:19.630Z,10.87
2022-12-25T17:33:46.480Z,11.27
2022-12-25T17:36:16.880Z,11.20
2022-12-25T17:38:44.796Z,11.17
2022-12-25T17:41:13.153Z,11.00
2022-12-25T17:43:42.128Z,11.10
2022-12-25T17:46:13.070Z,10.77
2022-12-25T17:48:40.342Z,10.93
2022-12-25T17:51:10.415Z,11.10
2022-12-25T17:53:38.947Z,10.90
2022-12-25T17:56:06.385Z,10.93
2022-12-25T17:58:33.421Z,11.47
2022-12-25T18:01:12.463Z,11.40
2022-12-25T18:03:39.610Z,11.20
2022-12-25T18:06:09.241Z,11.00
2022-12-25T18:08:39.546Z,11.30
2022-12-25T18:11:10.104Z,11.80
2022-12-25T18:13:38.388Z,11.50
2022-12-25T18:16:07.407Z,11.10
2022-12-25T18:18:35.141Z,11.23
2022-12-25T18:21:02.564Z,11.30
2022-12-25T18:23:29.532Z,11.03
2022-12-25T18:25:56.984Z,10.83
2022-12-25T18:28:23.916Z,11.70
2022-12-25T18:30:50.697Z,11.43
2022-12-25T18:33:17.560Z,11.60
2022-12-25T18:35:46.677Z,10.70
2022-12-25T18:38:14.216Z,11.10
2022-12-25T18:40:46.659Z,11.23
2022-12-25T18:43:14.624Z,11.50
2022-12-25T18:45:42.638Z,11.88
2022-12-25T18:48:10.655Z,10.93
2022-12-25T18:50:40.934Z,11.63
2022-12-25T18:53:08.192Z,11.27
2022-12-25T18:55:35.669Z,11.00
2022-12-25T18:58:02.669Z,11.33
2022-12-25T19:00:29.811Z,11.30
2022-12-25T19:02:58.540Z,11.27
2022-12-25T19:05:25.916Z,10.33
2022-12-25T19:07:52.989Z,10.27
2022-12-25T19:10:19.843Z,11.45
2022-12-25T19:12:46.799Z,11.20
2022-12-25T19:15:13.636Z,11.40
2022-12-25T19:17:40.515Z,11.50
2022-12-25T19:20:08.169Z,11.37
2022-12-25T19:22:35.085Z,11.57
2022-12-25T19:25:01.919Z,11.07
2022-12-25T19:27:28.777Z,11.40
2022-12-25T19:29:55.622Z,11.30
2022-12-25T19:32:22.541Z,11.23
2022-12-25T19:34:49.330Z,10.90
2022-12-25T19:37:16.243Z,11.43
2022-12-25T19:39:46.777Z,11.20
2022-12-25T19:42:15.611Z,11.17
2022-12-25T19:44:43.236Z,11.70
2022-12-25T19:47:11.232Z,11.20
2022-12-25T19:49:39.882Z,11.83
2022-12-25T19:52:08.046Z,11.47
2022-12-25T19:54:35.039Z,11.73
2022-12-25T19:57:01.879Z,11.50
2022-12-25T19:59:28.662Z,11.60
2022-12-25T20:01:55.731Z,11.30
2022-12-25T20:04:22.715Z,11.70
2022-12-25T20:06:49.555Z,11.27
2022-12-25T20:09:21.212Z,11.13
2022-12-25T20:11:48.794Z,11.13
2022-12-25T20:14:16.573Z,11.07
2022-12-25T20:16:44.325Z,11.03
2022-12-25T20:19:12.778Z,11.17
2022-12-25T20:21:40.139Z,10.50
2022-12-25T20:24:10.124Z,10.60
2022-12-25T20:26:38.924Z,11.10
2022-12-25T20:29:06.757Z,11.10
2022-12-25T20:31:35.286Z,10.80
2022-12-25T20:34:08.528Z,11.37
2022-12-25T20:36:37.753Z,11.43
2022-12-25T20:39:09.685Z,10.87
2022-12-25T20:41:37.743Z,10.70
2022-12-25T20:44:06.681Z,10.90
2022-12-25T20:46:34.026Z,10.60
2022-12-25T20:49:02.118Z,10.83
2022-12-25T20:51:29.103Z,10.67
2022-12-25T20:53:56.391Z,10.80
2022-12-25T20:56:25.105Z,10.73
2022-12-25T20:58:58.454Z,10.00
2022-12-25T21:01:27.482Z,10.00
2022-12-25T21:03:55.406Z,10.40
2022-12-25T21:06:23.475Z,10.93
2022-12-25T21:08:50.236Z,10.43
2022-12-25T21:11:18.151Z,10.53
2022-12-25T21:13:46.214Z,10.50
2022-12-25T21:16:16.035Z,9.80
2022-12-25T21:18:43.047Z,10.40
2022-12-25T21:21:10.799Z,10.83
2022-12-25T21:23:39.858Z,10.77
2022-12-25T21:26:20.074Z,10.63
2022-12-25T21:28:51.372Z,10.57
2022-12-25T21:31:18.807Z,10.57
2022-12-25T21:33:51.721Z,10.07
2022-12-25T21:36:33.935Z,10.87
2022-12-25T21:39:02.305Z,10.73
2022-12-25T21:41:30.670Z,10.97
2022-12-25T21:43:57.955Z,10.93
2022-12-25T21:46:25.910Z,11.07
2022-12-25T21:48:53.018Z,10.97
2022-12-25T21:51:40.958Z,11.13
2022-12-25T21:54:08.640Z,11.50
2022-12-25T21:56:43.132Z,11.07
2022-12-25T21:59:13.107Z,11.33
2022-12-25T22:01:40.010Z,11.50
2022-12-25T22:04:08.751Z,11.67
2022-12-25T22:06:54.216Z,11.70
2022-12-25T22:09:22.343Z,11.60
2022-12-25T22:12:08.043Z,11.73
2022-12-25T22:14:53.729Z,11.77
2022-12-25T22:17:54.917Z,11.07
2022-12-25T22:20:36.610Z,11.23
2022-12-25T22:23:04.039Z,10.90
2022-12-25T22:25:30.856Z,11.67
2022-12-25T22:27:58.189Z,11.10
2022-12-25T22:30:28.719Z,10.93
2022-12-25T22:32:56.102Z,11.47
2022-12-25T22:35:23.452Z,11.33
2022-12-25T22:37:50.569Z,11.37
2022-12-25T22:40:18.997Z,11.47
2022-12-25T22:42:45.930Z,11.03
2022-12-25T22:45:13.239Z,11.37
2022-12-25T22:47:40.431Z,11.80
2022-12-25T22:50:07.913Z,11.47
2022-12-25T22:52:34.819Z,11.50
2022-12-25T22:55:02.498Z,11.87
2022-12-25T22:57:29.438Z,11.50
2022-12-25T22:59:56.303Z,11.03
2022-12-25T23:02:23.593Z,11.93
2022-12-25T23:04:50.762Z,11.60
2022-12-25T23:07:17.740Z,11.30
2022-12-25T23:09:44.638Z,11.53
2022-12-25T23:12:32.104Z,11.33
2022-12-25T23:14:59.191Z,11.20
2022-12-25T23:17:44.255Z,11.27
2022-12-25T23:20:33.133Z,11.80
2022-12-25T23:23:19.467Z,11.33
2022-12-25T23:26:04.749Z,11.57
2022-12-25T23:28:50.061Z,11.80
2022-12-25T23:31:17.230Z,11.93
2022-12-25T23:33:44.214Z,11.93
2022-12-25T23:36:11.076Z,11.67
2022-12-25T23:38:37.890Z,11.60
2022-12-25T23:41:04.852Z,11.67
2022-12-25T23:43:31.694Z,11.70
2022-12-25T23:45:58.791Z,11.87
2022-12-25T23:48:25.589Z,11.70
2022-12-25T23:50:52.450Z,11.90
2022-12-25T23:53:19.264Z,11.77
2022-12-25T23:55:51.558Z,11.93
2022-12-25T23:58:22.028Z,11.13
